createdAt,value
2016-06-24T10:25:43.228Z,1006.86
2016-06-24T10:26:43.168Z,1006.91
2016-06-24T10:27:43.151Z,1006.18
2016-06-24T10:28:43.152Z,1006.35
2016-06-24T10:29:43.144Z,1006.28
2016-06-24T10:30:43.168Z,1006.31
2016-06-24T10:31:43.129Z,1006.29
2016-06-24T10:32:43.133Z,1006.34
2016-06-24T10:33:43.116Z,1006.38
2016-06-24T10:34:43.109Z,1006.38
2016-06-24T10:35:43.099Z,1006.4
2016-06-24T10:36:43.206Z,1006.41
2016-06-24T10:37:43.148Z,1006.38
2016-06-24T10:38:43.086Z,1006.36
2016-06-24T10:39:43.101Z,1006.38
2016-06-24T10:40:43.132Z,1006.34
2016-06-24T10:41:43.068Z,1006.34
2016-06-24T10:42:43.095Z,1006.36
2016-06-24T10:43:43.075Z,1006.35
2016-06-24T10:44:43.053Z,1006.47
2016-06-24T10:45:43.043Z,1006.39
2016-06-24T10:46:43.038Z,1006.41
2016-06-24T10:47:43.046Z,1006.39
2016-06-24T10:48:43.062Z,1006.39
2016-06-24T10:49:43.034Z,1006.34
2016-06-24T10:50:43.022Z,1006.38
2016-06-24T10:51:43.024Z,1006.35
2016-06-24T10:52:43.017Z,1006.36
2016-06-24T10:53:43.033Z,1006.29
2016-06-24T10:54:43.020Z,1006.3
2016-06-24T10:55:43.074Z,1006.29
2016-06-24T10:56:43.016Z,1006.38
2016-06-24T10:57:43.011Z,1006.29
2016-06-24T10:58:43.010Z,1006.27
2016-06-24T10:59:43.118Z,1006.27
2016-06-24T11:00:43.015Z,1006.31
2016-06-24T11:01:43.006Z,1006.29
2016-06-24T11:02:43.015Z,1006.26
2016-06-24T11:03:43.014Z,1006.33
2016-06-24T11:04:43.019Z,1006.31
2016-06-24T11:05:43.013Z,1006.28
2016-06-24T11:06:43.015Z,1006.28
2016-06-24T11:07:43.018Z,1006.29
2016-06-24T11:08:43.016Z,1006.37
2016-06-24T11:09:43.019Z,1006.34
2016-06-24T11:10:43.018Z,1006.4
2016-06-24T11:11:43.019Z,1006.45
2016-06-24T11:12:43.023Z,1006.43
2016-06-24T11:13:43.019Z,1006.48
2016-06-24T11:14:43.015Z,1006.47
2016-06-24T11:15:43.016Z,1006.47
2016-06-24T11:16:43.067Z,1006.46
2016-06-24T11:17:43.014Z,1006.41
2016-06-24T11:18:43.012Z,1006.46
2016-06-24T11:19:43.011Z,1006.45
2016-06-24T11:20:43.017Z,1006.43
2016-06-24T11:21:43.011Z,1006.44
2016-06-24T11:22:43.011Z,1006.52
2016-06-24T11:23:43.010Z,1006.49
2016-06-24T11:24:43.012Z,1006.54
2016-06-24T11:25:43.006Z,1006.5
2016-06-24T11:26:43.010Z,1006.47
2016-06-24T11:27:43.004Z,1006.52
2016-06-24T11:28:43.016Z,1006.59
2016-06-24T11:29:43.017Z,1006.52
2016-06-24T11:30:43.012Z,1006.48
2016-06-24T11:31:43.011Z,1006.51
2016-06-24T11:32:43.018Z,1006.54
2016-06-24T11:33:43.016Z,1006.56
2016-06-24T11:34:43.079Z,1006.56
2016-06-24T11:35:43.024Z,1006.48
2016-06-24T11:36:43.023Z,1006.53
2016-06-24T11:37:43.025Z,1006.57
2016-06-24T11:38:43.064Z,1006.49
2016-06-24T11:39:43.118Z,1006.51
2016-06-24T11:40:43.022Z,1006.52
2016-06-24T11:41:43.021Z,1006.53
2016-06-24T11:42:43.026Z,1006.5
2016-06-24T11:43:43.019Z,1006.49
2016-06-24T11:44:43.173Z,1006.5
2016-06-24T11:45:43.057Z,1006.56
2016-06-24T11:46:43.145Z,1006.58
2016-06-24T11:47:43.069Z,1006.59
2016-06-24T11:48:43.049Z,1006.52
2016-06-24T11:49:43.045Z,1006.55
2016-06-24T11:50:43.016Z,1006.52
2016-06-24T11:51:43.058Z,1006.54
2016-06-24T11:52:43.029Z,1006.57
2016-06-24T11:53:42.998Z,1006.6
2016-06-24T11:54:43.003Z,1006.63
2016-06-24T11:55:42.991Z,1006.68
2016-06-24T11:56:42.988Z,1006.66
2016-06-24T11:57:42.983Z,1006.67
2016-06-24T11:58:43.154Z,1006.69
2016-06-24T11:59:43.143Z,1006.66
2016-06-24T12:00:42.978Z,1006.66
2016-06-24T12:01:42.965Z,1006.66
2016-06-24T12:02:42.959Z,1006.67
2016-06-24T12:03:42.955Z,1006.68
2016-06-24T12:04:42.958Z,1006.69
2016-06-24T12:05:42.945Z,1006.69
2016-06-24T12:06:42.974Z,1006.6
2016-06-24T12:07:42.931Z,1006.62
2016-06-24T12:08:42.931Z,1006.64
2016-06-24T12:09:42.921Z,1006.64
2016-06-24T12:10:42.913Z,1006.69
2016-06-24T12:11:42.906Z,1006.66
2016-06-24T12:12:42.951Z,1006.76
2016-06-24T12:13:42.891Z,1006.77
2016-06-24T12:14:42.882Z,1006.79
2016-06-24T12:15:42.879Z,1006.8
2016-06-24T12:16:42.877Z,1006.86
2016-06-24T12:17:42.866Z,1006.85
2016-06-24T12:18:42.860Z,1006.86
2016-06-24T12:19:42.851Z,1006.82
2016-06-24T12:20:42.847Z,1006.82
2016-06-24T12:21:42.839Z,1006.85
2016-06-24T12:22:42.832Z,1006.84
2016-06-24T12:23:42.825Z,1006.86
2016-06-24T12:24:42.818Z,1006.9
2016-06-24T12:25:42.805Z,1006.82
2016-06-24T12:26:42.802Z,1006.84
2016-06-24T12:27:42.794Z,1006.86
2016-06-24T12:28:42.786Z,1006.83
2016-06-24T12:29:42.777Z,1006.9
2016-06-24T12:30:42.783Z,1006.92
2016-06-24T12:31:42.764Z,1006.92
2016-06-24T12:32:42.760Z,1006.92
2016-06-24T12:33:42.746Z,1006.9
2016-06-24T12:34:42.748Z,1006.95
2016-06-24T12:35:42.766Z,1006.99
2016-06-24T12:36:42.722Z,1006.99
2016-06-24T12:37:42.717Z,1007.02
2016-06-24T12:38:42.716Z,1006.96
2016-06-24T12:39:42.702Z,1006.98
2016-06-24T12:40:42.694Z,1006.95
2016-06-24T12:41:42.684Z,1006.95
2016-06-24T12:42:42.678Z,1007.01
2016-06-24T12:43:42.667Z,1006.96
2016-06-24T12:44:42.658Z,1006.91
2016-06-24T12:45:42.646Z,1006.92
2016-06-24T12:46:42.642Z,1006.94
2016-06-24T12:47:42.633Z,1006.84
2016-06-24T12:48:42.630Z,1006.87
2016-06-24T12:49:42.616Z,1006.92
2016-06-24T12:50:42.612Z,1006.98
2016-06-24T12:51:42.603Z,1007.01
2016-06-24T12:52:42.596Z,1007.03
2016-06-24T12:53:42.603Z,1007
2016-06-24T12:54:42.585Z,1006.98
2016-06-24T12:55:42.570Z,1006.94
2016-06-24T12:56:42.571Z,1006.93
2016-06-24T12:57:42.562Z,1006.95
2016-06-24T12:58:42.555Z,1006.93
2016-06-24T12:59:42.546Z,1006.87
2016-06-24T13:00:42.545Z,1006.91
2016-06-24T13:01:42.533Z,1006.88
2016-06-24T13:02:42.523Z,1006.93
2016-06-24T13:03:42.518Z,1006.92
2016-06-24T13:04:42.515Z,1006.92
2016-06-24T13:05:42.504Z,1006.89
2016-06-24T13:06:42.494Z,1006.87
2016-06-24T13:07:42.488Z,1006.88
2016-06-24T13:08:42.494Z,1006.85
2016-06-24T13:09:42.475Z,1006.89
2016-06-24T13:10:42.469Z,1006.94
2016-06-24T13:11:42.458Z,1007
2016-06-24T13:12:42.450Z,1006.96
2016-06-24T13:13:42.441Z,1006.95
2016-06-24T13:14:42.438Z,1006.97
2016-06-24T13:15:42.427Z,1007.03
2016-06-24T13:16:42.421Z,1007.01
2016-06-24T13:17:42.415Z,1007.01
2016-06-24T13:18:42.401Z,1007.02
2016-06-24T13:19:42.394Z,1007.01
2016-06-24T13:20:42.402Z,1006.97
2016-06-24T13:21:42.380Z,1007.05
2016-06-24T13:22:42.370Z,1006.99
2016-06-24T13:23:42.367Z,1007.04
2016-06-24T13:24:42.349Z,1007.05
2016-06-24T13:25:42.340Z,1007.09
2016-06-24T13:26:42.333Z,1007.07
2016-06-24T13:27:42.319Z,1007.08
2016-06-24T13:28:42.313Z,1007.05
2016-06-24T13:29:42.305Z,1007.1
2016-06-24T13:30:42.291Z,1007.1
2016-06-24T13:31:42.284Z,1007.05
2016-06-24T13:32:42.269Z,1007.04
2016-06-24T13:33:42.262Z,1007.07
2016-06-24T13:34:42.261Z,1007.01
2016-06-24T13:35:42.248Z,1007.03
2016-06-24T13:36:42.241Z,1007.01
2016-06-24T13:37:42.232Z,1007.04
2016-06-24T13:38:42.222Z,1006.99
2016-06-24T13:39:42.214Z,1007.02
2016-06-24T13:40:42.202Z,1007.02
2016-06-24T13:41:42.190Z,1007.01
2016-06-24T13:42:42.188Z,1006.99
2016-06-24T13:43:42.175Z,1006.92
2016-06-24T13:44:42.174Z,1006.91
2016-06-24T13:45:42.163Z,1006.94
2016-06-24T13:46:42.152Z,1006.91
2016-06-24T13:47:42.144Z,1006.9
2016-06-24T13:48:42.134Z,1006.89
2016-06-24T13:49:42.130Z,1006.84
2016-06-24T13:50:42.138Z,1006.88
2016-06-24T13:51:42.110Z,1006.89
2016-06-24T13:52:42.099Z,1006.91
2016-06-24T13:53:42.094Z,1006.88
2016-06-24T13:54:42.083Z,1006.88
2016-06-24T13:55:42.079Z,1006.91
2016-06-24T13:56:42.067Z,1006.95
2016-06-24T13:57:42.073Z,1006.97
2016-06-24T13:58:42.049Z,1007
2016-06-24T13:59:42.043Z,1006.98
2016-06-24T14:00:42.033Z,1006.97
2016-06-24T14:01:42.026Z,1007.01
2016-06-24T14:02:42.017Z,1007
2016-06-24T14:03:42.013Z,1007
2016-06-24T14:04:42.001Z,1006.97
2016-06-24T14:05:41.992Z,1006.94
2016-06-24T14:06:41.983Z,1006.94
2016-06-24T14:07:41.973Z,1006.96
2016-06-24T14:08:41.959Z,1006.89
2016-06-24T14:09:41.950Z,1006.89
2016-06-24T14:10:41.946Z,1006.93
2016-06-24T14:11:41.934Z,1006.9
2016-06-24T14:12:41.919Z,1006.87
2016-06-24T14:13:41.912Z,1006.85
2016-06-24T14:14:41.903Z,1006.74
2016-06-24T14:15:41.891Z,1006.76
2016-06-24T14:16:41.883Z,1006.62
2016-06-24T14:17:41.871Z,1006.76
2016-06-24T14:18:41.862Z,1006.77
2016-06-24T14:19:41.850Z,1006.75
2016-06-24T14:20:41.840Z,1006.71
2016-06-24T14:21:41.831Z,1006.69
2016-06-24T14:22:41.822Z,1006.75
2016-06-24T14:23:41.804Z,1006.68
2016-06-24T14:24:41.798Z,1006.7
2016-06-24T14:25:41.786Z,1006.65
2016-06-24T14:26:41.777Z,1006.7
2016-06-24T14:27:41.770Z,1006.66
2016-06-24T14:28:41.761Z,1006.65
2016-06-24T14:29:41.749Z,1006.76
2016-06-24T14:30:41.746Z,1006.64
2016-06-24T14:31:41.729Z,1006.64
2016-06-24T14:32:41.718Z,1006.65
2016-06-24T14:33:41.710Z,1006.62
2016-06-24T14:34:41.704Z,1006.65
2016-06-24T14:35:41.697Z,1006.64
2016-06-24T14:36:41.686Z,1006.66
2016-06-24T14:37:41.670Z,1006.57
2016-06-24T14:38:41.666Z,1006.57
2016-06-24T14:39:41.660Z,1006.57
2016-06-24T14:40:41.651Z,1006.56
2016-06-24T14:41:41.649Z,1006.5
2016-06-24T14:42:41.627Z,1006.52
2016-06-24T14:43:41.639Z,1006.51
2016-06-24T14:44:41.615Z,1006.54
2016-06-24T14:45:41.605Z,1006.52
2016-06-24T14:46:41.588Z,1006.47
2016-06-24T14:47:41.582Z,1006.49
2016-06-24T14:48:41.586Z,1006.49
2016-06-24T14:49:41.563Z,1006.47
2016-06-24T14:50:41.555Z,1006.43
2016-06-24T14:51:41.542Z,1006.58
2016-06-24T14:52:41.556Z,1006.44
2016-06-24T14:53:41.570Z,1006.52
2016-06-24T14:54:41.526Z,1006.43
2016-06-24T14:55:41.511Z,1006.43
2016-06-24T14:56:41.509Z,1006.51
2016-06-24T14:57:41.500Z,1006.45
2016-06-24T14:58:41.487Z,1006.43
2016-06-24T14:59:41.479Z,1006.42
2016-06-24T15:00:41.469Z,1006.44
2016-06-24T15:01:41.465Z,1006.49
2016-06-24T15:02:41.457Z,1006.39
2016-06-24T15:03:41.446Z,1006.43
2016-06-24T15:04:41.440Z,1006.42
2016-06-24T15:05:41.430Z,1006.51
2016-06-24T15:06:41.420Z,1006.45
2016-06-24T15:07:41.412Z,1006.48
2016-06-24T15:08:41.402Z,1006.46
2016-06-24T15:09:41.403Z,1006.52
2016-06-24T15:10:41.387Z,1006.57
2016-06-24T15:11:41.378Z,1006.68
2016-06-24T15:12:41.373Z,1006.52
2016-06-24T15:13:41.361Z,1006.58
2016-06-24T15:14:41.356Z,1006.61
2016-06-24T15:15:41.342Z,1006.68
2016-06-24T15:16:41.337Z,1006.65
2016-06-24T15:17:41.322Z,1006.57
2016-06-24T15:18:41.321Z,1006.62
2016-06-24T15:19:41.309Z,1006.63
2016-06-24T15:20:41.298Z,1006.63
2016-06-24T15:21:41.292Z,1006.64
2016-06-24T15:22:41.279Z,1006.62
2016-06-24T15:23:41.282Z,1006.62
2016-06-24T15:24:41.262Z,1006.62
2016-06-24T15:25:41.255Z,1006.72
2016-06-24T15:26:41.242Z,1006.61
2016-06-24T15:27:41.235Z,1006.61
2016-06-24T15:28:41.227Z,1006.62
2016-06-24T15:29:41.216Z,1006.59
2016-06-24T15:30:41.202Z,1006.58
2016-06-24T15:31:41.198Z,1006.62
2016-06-24T15:32:41.186Z,1006.67
2016-06-24T15:33:41.179Z,1006.65
2016-06-24T15:34:41.175Z,1006.59
2016-06-24T15:35:41.157Z,1006.61
2016-06-24T15:36:41.147Z,1006.66
2016-06-24T15:37:41.139Z,1006.61
2016-06-24T15:38:41.131Z,1006.69
2016-06-24T15:39:41.119Z,1006.71
2016-06-24T15:40:41.110Z,1006.72
2016-06-24T15:41:41.103Z,1006.69
2016-06-24T15:42:41.091Z,1006.67
2016-06-24T15:43:41.080Z,1006.63
2016-06-24T15:44:41.075Z,1006.63
2016-06-24T15:45:41.063Z,1006.65
2016-06-24T15:46:41.054Z,1006.67
2016-06-24T15:47:41.051Z,1006.68
2016-06-24T15:48:41.036Z,1006.69
2016-06-24T15:49:41.027Z,1006.69
2016-06-24T15:50:41.023Z,1006.66
2016-06-24T15:51:41.010Z,1006.65
2016-06-24T15:52:41.003Z,1006.71
2016-06-24T15:53:40.994Z,1006.65
2016-06-24T15:54:40.984Z,1006.65
2016-06-24T15:55:40.994Z,1006.77
2016-06-24T15:56:40.970Z,1006.72
2016-06-24T15:57:40.962Z,1006.67
2016-06-24T15:58:40.943Z,1006.61
2016-06-24T15:59:40.946Z,1006.67
2016-06-24T16:00:40.930Z,1006.67
2016-06-24T16:01:40.917Z,1006.64
2016-06-24T16:02:40.906Z,1006.77
2016-06-24T16:03:40.896Z,1006.72
2016-06-24T16:04:40.914Z,1006.73
2016-06-24T16:05:40.882Z,1006.72
2016-06-24T16:06:40.874Z,1006.71
2016-06-24T16:07:40.871Z,1006.71
2016-06-24T16:08:40.845Z,1006.64
2016-06-24T16:09:40.839Z,1006.71
2016-06-24T16:10:40.831Z,1006.73
2016-06-24T16:11:40.824Z,1006.72
2016-06-24T16:12:40.808Z,1006.68
2016-06-24T16:13:40.797Z,1006.72
2016-06-24T16:14:40.791Z,1006.75
2016-06-24T16:15:40.778Z,1006.76
2016-06-24T16:16:40.771Z,1006.79
2016-06-24T16:17:40.850Z,1006.72
2016-06-24T16:18:40.844Z,1006.77
2016-06-24T16:19:40.834Z,1006.76
2016-06-24T16:20:40.727Z,1006.81
2016-06-24T16:21:40.717Z,1006.92
2016-06-24T16:22:40.707Z,1006.83
2016-06-24T16:23:40.695Z,1006.8
2016-06-24T16:24:40.698Z,1006.77
2016-06-24T16:25:40.683Z,1006.86
2016-06-24T16:26:40.661Z,1006.78
2016-06-24T16:27:40.650Z,1006.73
2016-06-24T16:28:40.640Z,1006.84
2016-06-24T16:29:40.631Z,1006.82
2016-06-24T16:30:40.611Z,1006.89
2016-06-24T16:31:40.602Z,1006.84
2016-06-24T16:32:40.591Z,1006.91
2016-06-24T16:33:40.587Z,1006.89
2016-06-24T16:34:40.568Z,1006.9
2016-06-24T16:35:40.560Z,1006.89
2016-06-24T16:36:40.548Z,1006.95
2016-06-24T16:37:40.535Z,1006.97
2016-06-24T16:38:40.521Z,1006.89
2016-06-24T16:39:40.511Z,1006.96
2016-06-24T16:40:40.502Z,1006.97
2016-06-24T16:41:40.490Z,1007.03
2016-06-24T16:42:40.482Z,1006.99
2016-06-24T16:43:40.478Z,1006.94
2016-06-24T16:44:40.457Z,1006.96
2016-06-24T16:45:40.444Z,1006.91
2016-06-24T16:46:40.430Z,1006.93
2016-06-24T16:47:40.422Z,1006.91
2016-06-24T16:48:40.405Z,1006.97
2016-06-24T16:49:40.400Z,1006.92
2016-06-24T16:50:40.389Z,1006.93
2016-06-24T16:51:40.377Z,1006.97
2016-06-24T16:52:40.364Z,1006.97
2016-06-24T16:53:40.359Z,1006.97
2016-06-24T16:54:40.342Z,1006.97
2016-06-24T16:55:40.323Z,1007.02
2016-06-24T16:56:40.318Z,1007.04
2016-06-24T16:57:40.314Z,1007.05
2016-06-24T16:58:40.289Z,1007.02
2016-06-24T16:59:40.282Z,1007.01
2016-06-24T17:00:40.267Z,1007.02
2016-06-24T17:01:40.254Z,1006.93
2016-06-24T17:02:40.244Z,1006.97
2016-06-24T17:03:40.237Z,1006.9
2016-06-24T17:04:40.217Z,1006.95
2016-06-24T17:05:40.206Z,1006.96
2016-06-24T17:06:40.192Z,1007.01
2016-06-24T17:07:40.178Z,1006.94
2016-06-24T17:08:40.174Z,1006.9
2016-06-24T17:09:40.156Z,1006.93
2016-06-24T17:10:40.145Z,1006.93
2016-06-24T17:11:40.134Z,1006.97
2016-06-24T17:12:40.122Z,1006.96
2016-06-24T17:13:40.111Z,1007
2016-06-24T17:14:40.095Z,1007.03
2016-06-24T17:15:40.087Z,1007.01
2016-06-24T17:16:40.071Z,1007.05
2016-06-24T17:17:40.059Z,1007.06
2016-06-24T17:18:40.046Z,1007.02
2016-06-24T17:19:40.039Z,1007.05
2016-06-24T17:20:40.040Z,1007.03
2016-06-24T17:21:40.013Z,1007.06
2016-06-24T17:22:39.999Z,1007.03
2016-06-24T17:23:39.994Z,1007.04
2016-06-24T17:24:39.980Z,1007.05
2016-06-24T17:25:39.976Z,1007.02
2016-06-24T17:26:39.954Z,1007.01
2016-06-24T17:27:39.941Z,1007.05
2016-06-24T17:28:39.929Z,1006.96
2016-06-24T17:29:39.916Z,1006.95
2016-06-24T17:30:39.901Z,1006.92
2016-06-24T17:31:39.891Z,1006.88
2016-06-24T17:32:39.896Z,1006.91
2016-06-24T17:33:39.868Z,1006.84
2016-06-24T17:34:39.848Z,1006.87
2016-06-24T17:35:39.845Z,1006.83
2016-06-24T17:36:39.830Z,1006.83
2016-06-24T17:37:39.818Z,1006.88
2016-06-24T17:38:39.808Z,1006.87
2016-06-24T17:39:39.795Z,1006.84
2016-06-24T17:40:39.783Z,1006.89
2016-06-24T17:41:39.771Z,1006.91
2016-06-24T17:42:39.759Z,1006.85
2016-06-24T17:43:39.745Z,1006.92
2016-06-24T17:44:39.733Z,1006.86
2016-06-24T17:45:39.718Z,1006.84
2016-06-24T17:46:39.712Z,1006.8
2016-06-24T17:47:39.695Z,1006.84
2016-06-24T17:48:39.680Z,1006.88
2016-06-24T17:49:39.672Z,1006.84
2016-06-24T17:50:39.656Z,1006.88
2016-06-24T17:51:39.646Z,1006.89
2016-06-24T17:52:39.636Z,1006.89
2016-06-24T17:53:39.667Z,1006.93
2016-06-24T17:54:39.615Z,1006.88
2016-06-24T17:55:39.600Z,1006.86
2016-06-24T17:56:39.583Z,1006.83
2016-06-24T17:57:39.579Z,1006.84
2016-06-24T17:58:39.563Z,1006.83
2016-06-24T17:59:39.554Z,1006.88
2016-06-24T18:00:39.533Z,1006.84
2016-06-24T18:01:39.546Z,1006.8
2016-06-24T18:02:39.508Z,1006.83
2016-06-24T18:03:39.498Z,1006.86
2016-06-24T18:04:39.490Z,1006.82
2016-06-24T18:05:39.475Z,1006.8
2016-06-24T18:06:39.461Z,1006.8
2016-06-24T18:07:39.450Z,1006.82
2016-06-24T18:08:39.437Z,1006.82
2016-06-24T18:09:39.429Z,1006.84
2016-06-24T18:10:39.417Z,1006.88
2016-06-24T18:11:39.398Z,1006.85
2016-06-24T18:12:39.386Z,1006.91
2016-06-24T18:13:39.375Z,1006.93
2016-06-24T18:14:39.362Z,1006.98
2016-06-24T18:15:39.354Z,1007
2016-06-24T18:16:39.341Z,1007.02
2016-06-24T18:17:39.324Z,1006.99
2016-06-24T18:18:39.314Z,1006.99
2016-06-24T18:19:39.304Z,1007.01
2016-06-24T18:20:39.291Z,1007.01
2016-06-24T18:21:39.275Z,1007.02
2016-06-24T18:22:39.263Z,1007.02
2016-06-24T18:23:39.247Z,1006.97
2016-06-24T18:24:39.242Z,1006.97
2016-06-24T18:25:39.225Z,1006.93
2016-06-24T18:26:39.212Z,1006.89
2016-06-24T18:27:39.202Z,1006.91
2016-06-24T18:28:39.189Z,1006.87
2016-06-24T18:29:39.182Z,1006.88
2016-06-24T18:30:39.165Z,1006.83
2016-06-24T18:31:39.151Z,1006.88
2016-06-24T18:32:39.144Z,1006.89
2016-06-24T18:33:39.124Z,1006.85
2016-06-24T18:34:39.155Z,1006.89
2016-06-24T18:35:39.098Z,1006.88
2016-06-24T18:36:39.087Z,1006.86
2016-06-24T18:37:39.072Z,1006.83
2016-06-24T18:38:39.058Z,1006.81
2016-06-24T18:39:39.049Z,1006.86
2016-06-24T18:40:39.032Z,1006.84
2016-06-24T18:41:39.023Z,1006.87
2016-06-24T18:42:39.009Z,1006.84
2016-06-24T18:43:39.009Z,1006.82
2016-06-24T18:44:38.984Z,1006.8
2016-06-24T18:45:38.968Z,1006.79
2016-06-24T18:46:38.954Z,1006.75
2016-06-24T18:47:38.942Z,1006.76
2016-06-24T18:48:38.926Z,1006.72
2016-06-24T18:49:38.920Z,1006.75
2016-06-24T18:50:38.903Z,1006.8
2016-06-24T18:51:38.892Z,1006.86
2016-06-24T18:52:38.874Z,1006.87
2016-06-24T18:53:38.864Z,1006.93
2016-06-24T18:54:38.850Z,1006.88
2016-06-24T18:55:38.841Z,1006.92
2016-06-24T18:56:38.822Z,1006.9
2016-06-24T18:57:38.810Z,1006.95
2016-06-24T18:58:38.794Z,1006.98
2016-06-24T18:59:38.784Z,1006.93
2016-06-24T19:00:38.768Z,1006.93
2016-06-24T19:01:38.759Z,1006.88
2016-06-24T19:02:38.760Z,1006.88
2016-06-24T19:03:38.733Z,1006.83
2016-06-24T19:04:38.714Z,1006.89
2016-06-24T19:05:38.706Z,1006.9
2016-06-24T19:06:38.690Z,1006.89
2016-06-24T19:07:38.673Z,1006.9
2016-06-24T19:08:38.673Z,1006.87
2016-06-24T19:09:38.646Z,1006.91
2016-06-24T19:10:38.640Z,1006.93
2016-06-24T19:11:38.622Z,1006.94
2016-06-24T19:12:38.608Z,1006.94
2016-06-24T19:13:38.596Z,1006.97
2016-06-24T19:14:38.582Z,1006.93
2016-06-24T19:15:38.565Z,1006.9
2016-06-24T19:16:38.556Z,1007.01
2016-06-24T19:17:38.544Z,1007
2016-06-24T19:18:38.533Z,1007.05
2016-06-24T19:19:38.518Z,1007.05
2016-06-24T19:20:38.515Z,1007.05
2016-06-24T19:21:38.487Z,1007.07
2016-06-24T19:22:38.475Z,1007.04
2016-06-24T19:23:38.458Z,1007.08
2016-06-24T19:24:38.445Z,1007.05
2016-06-24T19:25:38.438Z,1007.09
2016-06-24T19:26:38.422Z,1007.1
2016-06-24T19:27:38.403Z,1007.14
2016-06-24T19:28:38.397Z,1007.12
2016-06-24T19:29:38.378Z,1007.14
2016-06-24T19:30:38.366Z,1007.13
2016-06-24T19:31:38.354Z,1007.16
2016-06-24T19:32:38.337Z,1007.18
2016-06-24T19:33:38.321Z,1007.19
2016-06-24T19:34:38.311Z,1007.19
2016-06-24T19:35:38.298Z,1007.18
2016-06-24T19:36:38.290Z,1007.21
2016-06-24T19:37:38.269Z,1007.22
2016-06-24T19:38:38.256Z,1007.22
2016-06-24T19:39:38.242Z,1007.22
2016-06-24T19:40:38.225Z,1007.2
2016-06-24T19:41:38.221Z,1007.19
2016-06-24T19:42:38.209Z,1007.16
2016-06-24T19:43:38.191Z,1007.18
2016-06-24T19:44:38.179Z,1007.21
2016-06-24T19:45:38.162Z,1007.24
2016-06-24T19:46:38.151Z,1007.23
2016-06-24T19:47:38.134Z,1007.19
2016-06-24T19:48:38.120Z,1007.22
2016-06-24T19:49:38.108Z,1007.21
2016-06-24T19:50:38.091Z,1007.17
2016-06-24T19:51:38.077Z,1007.23
2016-06-24T19:52:38.065Z,1007.24
2016-06-24T19:53:38.047Z,1007.22
2016-06-24T19:54:38.036Z,1007.2
2016-06-24T19:55:38.022Z,1007.18
2016-06-24T19:56:38.006Z,1007.2
2016-06-24T19:57:37.991Z,1007.19
2016-06-24T19:58:37.986Z,1007.19
2016-06-24T19:59:37.962Z,1007.2
2016-06-24T20:00:37.951Z,1007.2
2016-06-24T20:01:37.936Z,1007.25
2016-06-24T20:02:37.922Z,1007.27
2016-06-24T20:03:37.909Z,1007.24
2016-06-24T20:04:37.895Z,1007.24
2016-06-24T20:05:37.882Z,1007.26
2016-06-24T20:06:37.866Z,1007.24
2016-06-24T20:07:37.853Z,1007.24
2016-06-24T20:08:37.838Z,1007.18
2016-06-24T20:09:37.818Z,1007.25
2016-06-24T20:10:37.809Z,1007.21
2016-06-24T20:11:37.795Z,1007.23
2016-06-24T20:12:37.785Z,1007.22
2016-06-24T20:13:37.767Z,1007.23
2016-06-24T20:14:37.752Z,1007.18
2016-06-24T20:15:37.737Z,1007.19
2016-06-24T20:16:37.723Z,1007.13
2016-06-24T20:17:37.706Z,1007.11
2016-06-24T20:18:37.691Z,1007.06
2016-06-24T20:19:37.680Z,1007.09
2016-06-24T20:20:37.663Z,1007.15
2016-06-24T20:21:37.653Z,1007.16
2016-06-24T20:22:37.634Z,1007.14
2016-06-24T20:23:37.617Z,1007.16
2016-06-24T20:24:37.604Z,1007.18
2016-06-24T20:25:37.591Z,1007.11
2016-06-24T20:26:37.574Z,1007.1
2016-06-24T20:27:37.561Z,1007.07
2016-06-24T20:28:37.547Z,1007.14
2016-06-24T20:29:37.530Z,1007.13
2016-06-24T20:30:37.514Z,1007.18
2016-06-24T20:31:37.503Z,1007.19
2016-06-24T20:32:37.490Z,1007.17
2016-06-24T20:33:37.470Z,1007.19
2016-06-24T20:34:37.459Z,1007.19
2016-06-24T20:35:37.445Z,1007.18
2016-06-24T20:36:37.435Z,1007.16
2016-06-24T20:37:37.413Z,1007.17
2016-06-24T20:38:37.402Z,1007.17
2016-06-24T20:39:37.385Z,1007.17
2016-06-24T20:40:37.367Z,1007.19
2016-06-24T20:41:37.352Z,1007.15
2016-06-24T20:42:37.341Z,1007.14
2016-06-24T20:43:37.330Z,1007.09
2016-06-24T20:44:37.311Z,1007
2016-06-24T20:45:37.302Z,1007.04
2016-06-24T20:46:37.294Z,1007.03
2016-06-24T20:47:37.270Z,1007.04
2016-06-24T20:48:37.251Z,1007.03
2016-06-24T20:49:37.237Z,1007.07
2016-06-24T20:50:37.223Z,1007.07
2016-06-24T20:51:37.208Z,1007.1
2016-06-24T20:52:37.190Z,1007.11
2016-06-24T20:53:37.179Z,1007.11
2016-06-24T20:54:37.159Z,1007.04
2016-06-24T20:55:37.150Z,1007.01
2016-06-24T20:56:37.152Z,1007.03
2016-06-24T20:57:37.118Z,1007
2016-06-24T20:58:37.102Z,1007.03
2016-06-24T20:59:37.099Z,1007.05
2016-06-24T21:00:37.077Z,1007.02
2016-06-24T21:01:37.058Z,1007.08
2016-06-24T21:02:37.041Z,1007.05
2016-06-24T21:03:37.025Z,1007.04
2016-06-24T21:04:37.010Z,1007.07
2016-06-24T21:05:36.997Z,1007.06
2016-06-24T21:06:36.983Z,1007.06
2016-06-24T21:07:36.971Z,1007.11
2016-06-24T21:08:36.950Z,1007.05
2016-06-24T21:09:36.935Z,1006.98
2016-06-24T21:10:36.922Z,1006.95
2016-06-24T21:11:36.910Z,1006.89
2016-06-24T21:12:36.896Z,1006.88
2016-06-24T21:13:36.874Z,1006.94
2016-06-24T21:14:36.860Z,1006.9
2016-06-24T21:15:36.842Z,1007
2016-06-24T21:16:36.829Z,1006.95
2016-06-24T21:17:36.820Z,1007
2016-06-24T21:18:36.800Z,1006.99
2016-06-24T21:19:36.789Z,1006.96
2016-06-24T21:20:36.772Z,1006.95
2016-06-24T21:21:36.758Z,1006.92
2016-06-24T21:22:36.745Z,1006.93
2016-06-24T21:23:36.732Z,1006.91
2016-06-24T21:24:36.713Z,1006.95
2016-06-24T21:25:36.696Z,1006.95
2016-06-24T21:26:36.686Z,1006.95
2016-06-24T21:27:36.666Z,1006.94
2016-06-24T21:28:36.659Z,1006.96
2016-06-24T21:29:36.636Z,1006.94
2016-06-24T21:30:36.620Z,1006.92
2016-06-24T21:31:36.607Z,1006.94
2016-06-24T21:32:36.590Z,1006.93
2016-06-24T21:33:36.577Z,1006.93
2016-06-24T21:34:36.563Z,1006.92
2016-06-24T21:35:36.548Z,1006.9
2016-06-24T21:36:36.534Z,1006.88
2016-06-24T21:37:36.521Z,1006.92
2016-06-24T21:38:36.501Z,1006.93
2016-06-24T21:39:36.487Z,1006.94
2016-06-24T21:40:36.467Z,1006.92
2016-06-24T21:41:36.454Z,1006.96
2016-06-24T21:42:36.451Z,1006.98
2016-06-24T21:43:36.425Z,1007.02
2016-06-24T21:44:36.410Z,1007.03
2016-06-24T21:45:36.394Z,1007.07
2016-06-24T21:46:36.382Z,1007.09
2016-06-24T21:47:36.367Z,1007.08
2016-06-24T21:48:36.355Z,1007.03
2016-06-24T21:49:36.334Z,1007.05
2016-06-24T21:50:36.319Z,1007
2016-06-24T21:51:36.309Z,1007.03
2016-06-24T21:52:36.286Z,1007.07
2016-06-24T21:53:36.280Z,1007.05
2016-06-24T21:54:36.258Z,1007.08
2016-06-24T21:55:36.247Z,1007.13
2016-06-24T21:56:36.230Z,1007.06
2016-06-24T21:57:36.264Z,1007.04
2016-06-24T21:58:36.200Z,1007.02
2016-06-24T21:59:36.184Z,1007
2016-06-24T22:00:36.167Z,1007.05
2016-06-24T22:01:36.152Z,1007.05
2016-06-24T22:02:36.134Z,1007.07
2016-06-24T22:03:36.125Z,1007.07
2016-06-24T22:04:36.106Z,1007.15
2016-06-24T22:05:36.103Z,1007.1
2016-06-24T22:06:36.080Z,1007.12
2016-06-24T22:07:36.059Z,1007.13
2016-06-24T22:08:36.044Z,1007.11
2016-06-24T22:09:36.032Z,1007.16
2016-06-24T22:10:36.017Z,1007.17
2016-06-24T22:11:36.003Z,1007.17
2016-06-24T22:12:35.984Z,1007.21
2016-06-24T22:13:35.977Z,1007.18
2016-06-24T22:14:35.958Z,1007.14
2016-06-24T22:15:35.941Z,1007.12
2016-06-24T22:16:35.923Z,1007.14
2016-06-24T22:17:35.918Z,1007.13
2016-06-24T22:18:35.895Z,1007.15
2016-06-24T22:19:35.885Z,1007.13
2016-06-24T22:20:35.862Z,1007.11
2016-06-24T22:21:35.845Z,1007.13
2016-06-24T22:22:35.833Z,1007.12
2016-06-24T22:23:35.818Z,1007.14
2016-06-24T22:24:35.800Z,1007.15
2016-06-24T22:25:35.786Z,1007.13
2016-06-24T22:26:35.772Z,1007.17
2016-06-24T22:27:35.761Z,1007.18
2016-06-24T22:28:35.747Z,1007.22
2016-06-24T22:29:35.722Z,1007.16
2016-06-24T22:30:35.707Z,1007.19
2016-06-24T22:31:35.697Z,1007.19
2016-06-24T22:32:35.677Z,1007.19
2016-06-24T22:33:35.666Z,1007.16